Time;durP1;ratioP1;P1;durP2;ratioP2;P2;SDS_P1;SDS_P2;PMS_P1;PMS_P2;Temp;Humidity;BMP_temperature;BMP_pressure;BME280_temperature;BME280_humidity;BME280_pressure;Samples;Min_cycle;Max_cycle;Signal;HPM_P1;HPM_P2
2021/10/13 00:01:49;;;;;;;4.65;0.90;;;9.00;95.60;;;;;;4802443;29;20126;-80
2021/10/13 00:04:15;;;;;;;3.47;0.85;;;9.00;95.60;;;;;;4810124;29;20141;-80
2021/10/13 00:06:40;;;;;;;5.75;1.20;;;9.00;95.60;;;;;;4804827;29;20137;-80
2021/10/13 00:09:06;;;;;;;4.40;1.00;;;9.10;95.60;;;;;;4792922;29;20107;-80
2021/10/13 00:11:33;;;;;;;4.63;1.10;;;9.00;95.50;;;;;;4801204;29;20050;-80
2021/10/13 00:14:00;;;;;;;4.22;0.93;;;9.00;95.40;;;;;;4799234;29;20058;-80
2021/10/13 00:16:26;;;;;;;3.47;1.00;;;9.10;95.30;;;;;;4807075;29;20050;-80
2021/10/13 00:18:51;;;;;;;4.13;0.85;;;9.10;95.30;;;;;;4809233;29;20050;-80
2021/10/13 00:21:17;;;;;;;4.10;0.80;;;9.10;95.20;;;;;;4797833;29;20131;-80
2021/10/13 00:23:43;;;;;;;3.92;0.93;;;9.10;95.00;;;;;;4807518;29;20053;-79
2021/10/13 00:26:09;;;;;;;3.67;0.93;;;9.10;94.90;;;;;;4804959;29;20096;-79
2021/10/13 00:28:35;;;;;;;3.38;0.82;;;9.10;94.80;;;;;;4793173;29;20511;-80
2021/10/13 00:31:01;;;;;;;3.88;0.93;;;9.10;94.90;;;;;;4793115;29;20134;-80
2021/10/13 00:33:26;;;;;;;6.10;1.10;;;9.10;94.80;;;;;;4807523;29;20130;-80
2021/10/13 00:35:52;;;;;;;3.47;0.80;;;9.10;94.80;;;;;;4793235;29;20051;-79
2021/10/13 00:38:17;;;;;;;4.72;1.00;;;9.10;95.10;;;;;;4792404;29;20078;-80
2021/10/13 00:40:43;;;;;;;3.97;0.77;;;9.10;94.90;;;;;;4793740;29;20042;-80
2021/10/13 00:43:08;;;;;;;3.25;0.73;;;9.10;94.90;;;;;;4800070;29;20047;-80
2021/10/13 00:45:34;;;;;;;3.85;0.80;;;9.10;95.00;;;;;;4824277;29;20042;-80
2021/10/13 00:47:59;;;;;;;2.58;0.70;;;9.10;95.00;;;;;;4826727;29;20499;-80
2021/10/13 00:50:25;;;;;;;4.22;0.90;;;9.10;95.10;;;;;;4806116;29;20053;-80
2021/10/13 00:52:51;;;;;;;2.55;0.70;;;9.10;95.00;;;;;;4803441;29;20373;-80
2021/10/13 00:55:20;;;;;;;6.68;1.13;;;9.10;95.00;;;;;;4798577;29;20047;-80
2021/10/13 00:57:48;;;;;;;4.15;0.88;;;9.10;95.00;;;;;;4807617;29;20412;-80
2021/10/13 01:00:14;;;;;;;3.97;1.05;;;9.10;95.00;;;;;;4791465;29;20054;-80
2021/10/13 01:03:02;;;;;;;3.97;0.95;;;9.10;95.00;;;;;;4798998;29;20080;-80
2021/10/13 01:06:05;;;;;;;3.70;0.77;;;9.10;95.10;;;;;;4809548;29;20062;-80
2021/10/13 01:09:11;;;;;;;3.30;0.88;;;9.00;94.90;;;;;;4816041;29;20054;-80
2021/10/13 01:11:55;;;;;;;2.97;0.70;;;9.00;94.90;;;;;;4817675;29;20107;-80
2021/10/13 01:14:42;;;;;;;3.65;0.90;;;9.00;95.00;;;;;;4792551;29;20043;-80
2021/10/13 01:17:19;;;;;;;3.70;0.90;;;8.90;95.10;;;;;;4794494;29;20055;-80
2021/10/13 01:19:44;;;;;;;2.97;0.80;;;8.90;95.10;;;;;;4807598;29;20046;-80
2021/10/13 01:22:28;;;;;;;4.05;0.80;;;9.00;95.10;;;;;;4795645;29;20135;-80
2021/10/13 01:25:19;;;;;;;3.03;0.60;;;8.90;95.10;;;;;;4810096;29;20038;-80
2021/10/13 01:27:53;;;;;;;5.40;0.95;;;8.90;95.00;;;;;;4805579;29;20062;-80
2021/10/13 01:30:22;;;;;;;4.32;1.00;;;8.90;95.20;;;;;;4793833;29;20118;-80
2021/10/13 01:32:55;;;;;;;4.13;1.00;;;8.90;95.40;;;;;;4796412;29;20401;-80
2021/10/13 01:35:22;;;;;;;2.88;0.80;;;8.90;95.50;;;;;;4815512;29;20576;-80
2021/10/13 01:37:53;;;;;;;4.63;0.80;;;8.80;95.50;;;;;;4825238;29;20099;-80
2021/10/13 01:40:21;;;;;;;2.92;0.80;;;8.90;95.60;;;;;;4805030;29;20078;-80
2021/10/13 01:42:50;;;;;;;3.25;0.55;;;8.90;95.70;;;;;;4805572;29;20050;-81
2021/10/13 01:45:17;;;;;;;3.22;0.75;;;8.90;95.70;;;;;;4807914;29;20054;-79
2021/10/13 01:47:45;;;;;;;3.40;0.88;;;8.90;95.60;;;;;;4797035;29;20046;-80
2021/10/13 01:50:12;;;;;;;4.38;1.13;;;8.90;95.60;;;;;;4804671;29;20065;-80
2021/10/13 01:52:39;;;;;;;3.25;0.70;;;8.80;95.60;;;;;;4815468;29;20069;-80
2021/10/13 01:55:06;;;;;;;3.72;0.60;;;8.90;95.60;;;;;;4808943;29;20579;-80
2021/10/13 01:57:34;;;;;;;2.97;0.70;;;8.80;95.60;;;;;;4804714;29;20065;-80
2021/10/13 02:00:06;;;;;;;4.05;0.80;;;8.80;95.50;;;;;;4817333;29;20054;-80
2021/10/13 02:02:34;;;;;;;2.88;0.80;;;8.80;95.40;;;;;;4811932;29;20082;-80
2021/10/13 02:05:01;;;;;;;3.15;0.70;;;8.80;95.40;;;;;;4809441;29;20097;-80
2021/10/13 02:07:28;;;;;;;2.70;0.75;;;8.80;95.30;;;;;;4805247;29;20061;-79
2021/10/13 02:09:58;;;;;;;2.72;0.70;;;8.80;95.30;;;;;;4792110;29;20129;-79
2021/10/13 02:12:26;;;;;;;2.20;0.90;;;8.80;95.10;;;;;;4797678;29;20115;-79
2021/10/13 02:14:53;;;;;;;4.35;0.80;;;8.80;95.10;;;;;;4822964;29;20083;-79
2021/10/13 02:17:20;;;;;;;5.20;0.90;;;8.80;95.10;;;;;;4794736;29;20072;-79
2021/10/13 02:19:47;;;;;;;5.13;0.98;;;8.80;95.00;;;;;;4809045;29;20074;-79
2021/10/13 02:22:15;;;;;;;4.13;0.85;;;8.80;94.90;;;;;;4802207;29;20058;-79
2021/10/13 02:24:45;;;;;;;3.25;0.80;;;8.80;95.00;;;;;;4797254;29;20058;-79
2021/10/13 02:27:18;;;;;;;3.05;0.80;;;8.80;94.90;;;;;;4791623;29;20579;-79
2021/10/13 02:29:44;;;;;;;3.13;0.80;;;8.80;95.00;;;;;;4791760;29;20180;-79
2021/10/13 02:32:12;;;;;;;3.55;0.80;;;8.80;95.00;;;;;;4791457;29;20046;-79
2021/10/13 02:34:38;;;;;;;4.80;0.95;;;8.80;94.90;;;;;;4793161;29;20047;-79
2021/10/13 02:37:04;;;;;;;3.08;0.80;;;8.80;95.00;;;;;;4811597;29;20050;-79
2021/10/13 02:39:29;;;;;;;7.00;0.90;;;8.80;95.10;;;;;;4804940;29;20183;-79
2021/10/13 02:41:55;;;;;;;1.92;0.57;;;8.80;95.10;;;;;;4794454;29;20412;-79
2021/10/13 02:44:21;;;;;;;3.28;0.80;;;8.80;95.10;;;;;;4798665;29;20492;-79
2021/10/13 02:46:51;;;;;;;4.82;1.00;;;8.80;95.20;;;;;;4805959;29;20107;-79
2021/10/13 02:49:36;;;;;;;2.95;0.80;;;8.80;95.50;;;;;;4805427;29;20057;-79
2021/10/13 02:52:19;;;;;;;5.18;1.10;;;8.80;95.10;;;;;;4796079;29;20148;-79
2021/10/13 02:54:58;;;;;;;2.33;0.70;;;8.80;95.20;;;;;;4798734;29;20407;-79
2021/10/13 02:57:32;;;;;;;3.65;0.98;;;8.70;95.10;;;;;;4806055;29;20046;-79
2021/10/13 03:00:04;;;;;;;2.85;0.85;;;8.70;95.20;;;;;;4783763;29;20046;-79
2021/10/13 03:02:44;;;;;;;2.42;0.70;;;8.70;95.30;;;;;;4800955;29;20070;-79
2021/10/13 03:05:10;;;;;;;3.85;0.95;;;8.70;95.30;;;;;;4813134;29;20050;-79
2021/10/13 03:07:39;;;;;;;3.08;0.98;;;8.70;95.30;;;;;;4804034;29;20499;-79
2021/10/13 03:10:06;;;;;;;3.67;0.80;;;8.70;95.30;;;;;;4790290;29;20142;-79
2021/10/13 03:12:39;;;;;;;3.13;0.80;;;8.70;95.30;;;;;;4790847;29;20533;-79
2021/10/13 03:15:07;;;;;;;2.83;0.63;;;8.70;95.30;;;;;;4794952;29;20051;-78
2021/10/13 03:17:34;;;;;;;5.28;1.08;;;8.70;95.30;;;;;;4791518;29;20076;-79
2021/10/13 03:20:01;;;;;;;4.88;1.00;;;8.70;95.30;;;;;;4792165;29;20046;-79
2021/10/13 03:22:27;;;;;;;2.95;0.90;;;8.70;95.40;;;;;;4803434;29;20055;-79
2021/10/13 03:24:53;;;;;;;2.38;0.68;;;8.70;95.20;;;;;;4791069;29;20125;-79
2021/10/13 03:27:24;;;;;;;5.15;0.90;;;8.70;95.10;;;;;;4816714;29;20154;-78
2021/10/13 03:29:50;;;;;;;4.63;1.10;;;8.70;95.00;;;;;;4814898;29;20066;-79
2021/10/13 03:32:17;;;;;;;4.90;0.90;;;8.70;95.10;;;;;;4790655;29;20059;-78
2021/10/13 03:34:43;;;;;;;3.35;0.77;;;8.80;95.10;;;;;;4799245;29;20503;-79
2021/10/13 03:37:09;;;;;;;4.45;0.93;;;8.80;95.00;;;;;;4795854;29;20133;-78
2021/10/13 03:39:35;;;;;;;3.35;0.90;;;8.80;95.00;;;;;;4800067;29;20058;-78
2021/10/13 03:42:04;;;;;;;5.80;0.90;;;8.80;95.00;;;;;;4790727;29;20081;-79
2021/10/13 03:44:29;;;;;;;4.65;0.90;;;8.80;95.20;;;;;;4792248;29;20138;-78
2021/10/13 03:46:55;;;;;;;4.72;1.00;;;8.80;95.10;;;;;;4813554;29;20142;-79
2021/10/13 03:49:20;;;;;;;3.28;0.90;;;8.80;95.10;;;;;;4796899;29;20054;-79
2021/10/13 03:51:46;;;;;;;6.03;1.08;;;8.80;94.90;;;;;;4789734;29;20094;-79
2021/10/13 03:54:11;;;;;;;6.07;1.00;;;8.80;95.00;;;;;;4808343;29;20054;-79
2021/10/13 03:56:37;;;;;;;4.93;1.00;;;8.80;95.10;;;;;;4806243;29;20131;-79
2021/10/13 03:59:02;;;;;;;6.32;0.95;;;8.90;95.10;;;;;;4793933;29;20104;-79
2021/10/13 04:01:28;;;;;;;6.18;1.00;;;8.90;95.20;;;;;;4806066;29;20057;-78
2021/10/13 04:03:54;;;;;;;4.30;0.98;;;8.90;95.20;;;;;;4799565;29;20059;-79
2021/10/13 04:06:19;;;;;;;3.55;1.00;;;8.90;95.00;;;;;;4808251;29;20046;-79
2021/10/13 04:08:45;;;;;;;6.00;1.33;;;8.90;95.00;;;;;;4802160;29;20072;-79
2021/10/13 04:11:10;;;;;;;8.27;1.00;;;8.90;95.00;;;;;;4804980;29;20412;-79
2021/10/13 04:13:37;;;;;;;6.18;1.00;;;8.90;95.10;;;;;;4790750;29;20149;-79
2021/10/13 04:16:02;;;;;;;8.73;1.33;;;8.90;95.10;;;;;;4789506;29;20055;-79
2021/10/13 04:18:28;;;;;;;5.75;0.85;;;8.90;95.60;;;;;;4805970;29;20047;-79
2021/10/13 04:20:54;;;;;;;4.45;0.80;;;9.00;95.40;;;;;;4797279;29;20058;-79
2021/10/13 04:23:19;;;;;;;7.05;1.15;;;9.00;95.30;;;;;;4804398;29;20054;-79
2021/10/13 04:25:46;;;;;;;3.65;0.63;;;9.00;95.20;;;;;;4801290;29;20385;-79
2021/10/13 04:28:12;;;;;;;4.25;1.00;;;9.00;95.30;;;;;;4806247;29;20116;-79
2021/10/13 04:30:39;;;;;;;5.32;1.02;;;9.00;95.30;;;;;;4819746;29;20054;-79
2021/10/13 04:33:05;;;;;;;7.47;0.77;;;9.00;95.30;;;;;;4804832;29;20519;-79
2021/10/13 04:35:31;;;;;;;5.05;0.98;;;9.00;95.20;;;;;;4790384;29;20058;-79
2021/10/13 04:37:57;;;;;;;1.67;0.60;;;9.00;95.20;;;;;;4813963;29;20401;-79
2021/10/13 04:40:22;;;;;;;1.80;0.50;;;9.00;95.10;;;;;;4810325;29;20107;-79
2021/10/13 04:42:48;;;;;;;3.38;0.80;;;9.00;95.00;;;;;;4791371;29;20042;-79
2021/10/13 04:45:14;;;;;;;2.33;0.60;;;9.00;95.00;;;;;;4798393;29;20141;-79
2021/10/13 04:47:39;;;;;;;3.20;0.60;;;9.00;95.10;;;;;;4810052;29;20050;-79
2021/10/13 04:50:06;;;;;;;3.05;0.60;;;9.00;95.00;;;;;;4808824;29;20058;-79
2021/10/13 04:52:31;;;;;;;3.97;0.85;;;9.00;94.90;;;;;;4812221;29;20071;-79
2021/10/13 04:54:57;;;;;;;3.58;0.60;;;9.00;95.00;;;;;;4812652;29;20085;-79
2021/10/13 04:57:22;;;;;;;2.33;0.63;;;9.00;94.90;;;;;;4814606;29;20043;-79
2021/10/13 04:59:48;;;;;;;7.78;0.90;;;9.00;94.90;;;;;;4805235;29;20043;-79
2021/10/13 05:02:14;;;;;;;2.15;0.60;;;9.00;94.80;;;;;;4793878;29;20423;-80
2021/10/13 05:04:39;;;;;;;2.47;0.80;;;9.00;94.80;;;;;;4791623;29;20055;-79
2021/10/13 05:07:05;;;;;;;2.72;0.60;;;9.00;94.80;;;;;;4792874;29;20416;-79
2021/10/13 05:09:31;;;;;;;6.72;0.60;;;9.00;95.20;;;;;;4793350;29;20050;-78
2021/10/13 05:11:56;;;;;;;3.85;0.57;;;9.00;94.90;;;;;;4802082;29;20195;-79
2021/10/13 05:14:22;;;;;;;4.53;0.80;;;9.10;95.00;;;;;;4798061;29;20137;-79
2021/10/13 05:16:48;;;;;;;3.53;0.82;;;9.00;95.00;;;;;;4808494;29;20129;-79
2021/10/13 05:19:13;;;;;;;5.55;1.00;;;9.10;95.00;;;;;;4825518;29;20050;-79
2021/10/13 05:21:39;;;;;;;3.60;0.70;;;9.10;95.10;;;;;;4804920;29;20053;-79
2021/10/13 05:24:05;;;;;;;2.72;0.60;;;9.10;95.20;;;;;;4800643;29;20050;-79
2021/10/13 05:26:31;;;;;;;4.75;0.80;;;9.10;95.10;;;;;;4802786;29;20460;-79
2021/10/13 05:28:57;;;;;;;6.22;0.90;;;9.10;95.00;;;;;;4810588;29;20047;-79
2021/10/13 05:31:22;;;;;;;3.95;0.73;;;9.10;95.10;;;;;;4809250;29;20078;-79
2021/10/13 05:33:57;;;;;;;5.93;0.70;;;9.10;95.10;;;;;;4809537;29;20384;-90
2021/10/13 05:36:32;;;;;;;3.33;0.73;;;9.10;95.10;;;;;;4795090;29;20051;-89
2021/10/13 05:39:14;;;;;;;6.78;0.93;;;9.20;95.40;;;;;;4810593;29;20038;-89
2021/10/13 05:42:02;;;;;;;3.47;0.70;;;9.20;95.50;;;;;;4810224;29;20054;-88
2021/10/13 05:44:27;;;;;;;7.93;0.90;;;9.20;95.50;;;;;;4767410;29;20063;-79
2021/10/13 05:46:56;;;;;;;5.32;0.85;;;9.20;95.70;;;;;;4791694;29;20043;-79
2021/10/13 05:49:22;;;;;;;8.77;1.15;;;9.20;95.70;;;;;;4814145;29;20058;-78
2021/10/13 05:51:47;;;;;;;7.70;0.82;;;9.20;95.80;;;;;;4803509;29;20522;-79
2021/10/13 05:54:13;;;;;;;8.02;0.98;;;9.30;95.70;;;;;;4797810;29;20081;-78
2021/10/13 05:56:38;;;;;;;5.90;1.00;;;9.30;95.50;;;;;;4791956;29;20135;-79
2021/10/13 05:59:04;;;;;;;7.93;1.10;;;9.30;95.70;;;;;;4802927;29;20043;-79
2021/10/13 06:01:30;;;;;;;4.57;0.70;;;9.30;95.70;;;;;;4809015;29;20055;-79
2021/10/13 06:03:55;;;;;;;8.95;1.25;;;9.30;95.50;;;;;;4811602;29;20149;-79
2021/10/13 06:06:21;;;;;;;5.07;1.00;;;9.30;95.50;;;;;;4797201;29;20047;-80
2021/10/13 06:08:47;;;;;;;8.80;1.42;;;9.30;95.40;;;;;;4793170;29;20250;-80
2021/10/13 06:11:13;;;;;;;7.15;1.00;;;9.30;95.50;;;;;;4797709;29;20043;-80
2021/10/13 06:13:40;;;;;;;9.95;1.10;;;9.30;95.60;;;;;;4807130;29;20050;-80
2021/10/13 06:16:13;;;;;;;6.88;0.80;;;9.30;95.50;;;;;;4808907;29;20504;-80
2021/10/13 06:18:39;;;;;;;3.58;0.70;;;9.30;95.50;;;;;;4806232;29;20081;-80
2021/10/13 06:21:04;;;;;;;3.47;0.60;;;9.30;95.20;;;;;;4814402;29;20100;-79
2021/10/13 06:23:30;;;;;;;3.38;0.90;;;9.30;95.00;;;;;;4826143;29;20049;-80
2021/10/13 06:25:56;;;;;;;2.65;0.70;;;9.30;95.00;;;;;;4814079;29;20075;-80
2021/10/13 06:28:22;;;;;;;3.80;0.77;;;9.30;95.00;;;;;;4804847;29;20063;-79
2021/10/13 06:30:48;;;;;;;3.40;0.55;;;9.30;95.10;;;;;;4803546;29;20050;-80
2021/10/13 06:33:13;;;;;;;2.10;0.60;;;9.30;95.10;;;;;;4808605;29;20061;-79
2021/10/13 06:35:39;;;;;;;4.93;0.68;;;9.20;95.00;;;;;;4807975;29;20053;-80
2021/10/13 06:38:05;;;;;;;4.10;0.68;;;9.20;95.00;;;;;;4792696;29;20488;-80
2021/10/13 06:40:30;;;;;;;2.75;0.70;;;9.20;95.10;;;;;;4809406;29;20074;-80
2021/10/13 06:42:56;;;;;;;4.57;0.73;;;9.20;95.20;;;;;;4801293;29;20050;-80
2021/10/13 06:45:22;;;;;;;2.67;0.70;;;9.20;95.20;;;;;;4791228;29;20484;-80
2021/10/13 06:47:47;;;;;;;3.53;0.88;;;9.20;95.30;;;;;;4811102;29;20047;-80
2021/10/13 06:50:13;;;;;;;5.10;0.80;;;9.20;95.30;;;;;;4790423;29;20050;-80
2021/10/13 06:52:39;;;;;;;6.20;1.05;;;9.20;95.20;;;;;;4808478;29;20074;-79
2021/10/13 06:55:09;;;;;;;7.13;0.90;;;9.20;95.30;;;;;;4810770;29;20082;-80
2021/10/13 06:57:35;;;;;;;7.03;0.98;;;9.20;95.30;;;;;;4807558;29;20078;-80
2021/10/13 07:00:01;;;;;;;6.05;1.10;;;9.20;95.30;;;;;;4804713;29;20050;-80
2021/10/13 07:02:27;;;;;;;4.15;0.75;;;9.20;95.40;;;;;;4805278;29;20043;-79
2021/10/13 07:04:52;;;;;;;4.90;1.10;;;9.20;95.30;;;;;;4805905;29;20077;-80
2021/10/13 07:07:18;;;;;;;10.50;1.30;;;9.30;95.30;;;;;;4808921;29;20065;-79
2021/10/13 07:09:43;;;;;;;7.50;1.58;;;9.30;95.60;;;;;;4798151;29;20043;-79
2021/10/13 07:12:09;;;;;;;9.35;1.30;;;9.30;95.70;;;;;;4807764;29;20043;-79
2021/10/13 07:14:35;;;;;;;9.52;1.02;;;9.30;95.70;;;;;;4802483;29;20050;-79
2021/10/13 07:17:00;;;;;;;6.28;1.10;;;9.40;95.70;;;;;;4793676;29;20070;-80
2021/10/13 07:19:26;;;;;;;8.88;1.27;;;9.40;95.60;;;;;;4792920;29;20137;-82
2021/10/13 07:21:51;;;;;;;4.20;0.90;;;9.40;95.70;;;;;;4793368;29;20153;-80
2021/10/13 07:24:17;;;;;;;11.90;1.58;;;9.40;95.70;;;;;;4797579;29;20082;-79
2021/10/13 07:26:45;;;;;;;6.97;0.95;;;9.40;95.70;;;;;;4806856;29;20057;-79
2021/10/13 07:29:11;;;;;;;7.78;1.17;;;9.50;95.60;;;;;;4791633;29;20077;-81
2021/10/13 07:31:37;;;;;;;6.30;0.82;;;9.50;95.80;;;;;;4789831;29;20055;-81
2021/10/13 07:34:03;;;;;;;4.15;1.02;;;9.60;95.70;;;;;;4807830;29;20055;-80
2021/10/13 07:36:28;;;;;;;6.75;1.30;;;9.60;95.70;;;;;;4813078;29;20400;-81
2021/10/13 07:38:54;;;;;;;6.75;1.08;;;9.70;95.60;;;;;;4800973;29;20127;-81
2021/10/13 07:41:20;;;;;;;6.13;1.27;;;9.70;95.70;;;;;;4800908;29;20107;-81
2021/10/13 07:43:47;;;;;;;13.95;1.60;;;9.80;96.00;;;;;;4790320;29;20054;-81
2021/10/13 07:46:13;;;;;;;10.30;1.08;;;9.80;96.10;;;;;;4811456;29;20065;-81
2021/10/13 07:48:39;;;;;;;6.63;1.02;;;9.90;96.20;;;;;;4790357;29;20128;-81
2021/10/13 07:51:05;;;;;;;4.38;0.80;;;10.00;96.00;;;;;;4794370;29;20138;-81
2021/10/13 07:53:30;;;;;;;7.57;0.90;;;10.10;95.80;;;;;;4796005;29;20050;-80
2021/10/13 07:55:56;;;;;;;4.80;0.90;;;10.10;95.70;;;;;;4789903;29;20047;-81
2021/10/13 07:58:22;;;;;;;5.85;0.90;;;10.20;95.80;;;;;;4790379;29;20054;-81
2021/10/13 08:00:47;;;;;;;4.65;1.00;;;10.30;95.80;;;;;;4805412;29;20043;-81
2021/10/13 08:03:13;;;;;;;5.93;0.98;;;10.40;95.90;;;;;;4790271;29;20412;-83
2021/10/13 08:05:39;;;;;;;7.72;1.00;;;10.50;95.80;;;;;;4800183;29;20058;-81
2021/10/13 08:08:05;;;;;;;5.35;1.05;;;10.60;95.80;;;;;;4789281;29;20134;-81
2021/10/13 08:10:30;;;;;;;4.60;0.90;;;10.70;95.80;;;;;;4796330;29;20141;-81
2021/10/13 08:12:56;;;;;;;5.57;0.95;;;10.70;95.50;;;;;;4790157;29;20051;-81
2021/10/13 08:15:21;;;;;;;8.00;1.00;;;10.80;95.30;;;;;;4812009;29;20460;-81
2021/10/13 08:17:47;;;;;;;6.82;1.20;;;10.90;95.50;;;;;;4807837;29;20062;-81
2021/10/13 08:20:13;;;;;;;7.72;1.20;;;11.00;95.50;;;;;;4793031;29;20089;-81
2021/10/13 08:22:40;;;;;;;7.18;1.10;;;11.00;95.40;;;;;;4807464;29;20522;-81
2021/10/13 08:25:08;;;;;;;8.75;1.40;;;11.10;95.20;;;;;;4810966;29;20062;-81
2021/10/13 08:27:34;;;;;;;9.13;1.30;;;11.20;95.00;;;;;;4810635;29;20068;-81
2021/10/13 08:29:59;;;;;;;5.10;0.80;;;11.30;95.00;;;;;;4808731;29;20046;-80
2021/10/13 08:32:25;;;;;;;7.97;1.15;;;11.30;94.80;;;;;;4810433;29;20047;-81
2021/10/13 08:34:50;;;;;;;6.22;1.10;;;11.40;94.90;;;;;;4809065;29;20410;-83
2021/10/13 08:37:16;;;;;;;7.50;1.00;;;11.50;94.80;;;;;;4820677;29;20046;-82
2021/10/13 08:39:42;;;;;;;20.38;2.00;;;11.50;94.70;;;;;;4801885;29;20562;-82
2021/10/13 08:42:07;;;;;;;10.30;1.30;;;11.50;94.80;;;;;;4800820;29;20054;-83
2021/10/13 08:44:33;;;;;;;5.20;0.88;;;11.60;94.70;;;;;;4797856;29;20442;-82
2021/10/13 08:47:00;;;;;;;7.95;1.25;;;11.70;94.50;;;;;;4799682;29;20042;-82
2021/10/13 08:49:25;;;;;;;9.35;0.90;;;11.70;94.50;;;;;;4795940;29;20050;-82
2021/10/13 08:51:51;;;;;;;6.95;0.90;;;11.80;94.40;;;;;;4798799;29;20042;-83
2021/10/13 08:54:18;;;;;;;7.55;1.02;;;11.80;94.30;;;;;;4802801;29;20396;-83
2021/10/13 08:56:44;;;;;;;4.25;0.80;;;11.80;94.30;;;;;;4802124;29;20099;-82
2021/10/13 08:59:32;;;;;;;7.10;1.23;;;11.90;94.20;;;;;;4792680;29;20066;-82
2021/10/13 09:02:01;;;;;;;6.35;1.08;;;11.90;94.10;;;;;;4806493;29;20048;-82
2021/10/13 09:04:26;;;;;;;7.30;1.00;;;11.90;94.00;;;;;;4807012;29;20058;-82
2021/10/13 09:07:02;;;;;;;8.20;0.80;;;12.00;94.00;;;;;;4809023;29;20526;-83
2021/10/13 09:09:27;;;;;;;4.35;0.77;;;12.00;94.10;;;;;;4812395;29;20058;-82
2021/10/13 09:11:53;;;;;;;11.35;1.13;;;12.00;94.10;;;;;;4812216;29;20055;-82
2021/10/13 09:14:29;;;;;;;5.32;0.90;;;12.10;94.00;;;;;;4795773;29;20066;-82
2021/10/13 09:17:02;;;;;;;8.93;1.05;;;12.10;94.10;;;;;;4814355;29;20047;-82
2021/10/13 09:19:47;;;;;;;7.30;1.02;;;12.20;94.00;;;;;;4792669;29;20130;-81
2021/10/13 09:22:15;;;;;;;7.75;1.00;;;12.30;94.00;;;;;;4805455;29;20042;-80
2021/10/13 09:24:51;;;;;;;5.55;0.80;;;12.30;94.10;;;;;;4794378;29;20047;-82
2021/10/13 09:27:24;;;;;;;3.53;0.40;;;12.40;93.90;;;;;;4809490;29;20046;-82
2021/10/13 09:29:56;;;;;;;4.68;0.80;;;12.50;93.70;;;;;;4805997;29;20115;-82
2021/10/13 09:32:22;;;;;;;5.30;0.80;;;12.60;93.50;;;;;;4800286;29;20090;-82
2021/10/13 09:34:51;;;;;;;6.32;0.70;;;12.70;93.30;;;;;;4805454;29;20461;-83
2021/10/13 09:37:17;;;;;;;6.43;0.80;;;12.80;92.80;;;;;;4804151;29;20568;-82
2021/10/13 09:39:56;;;;;;;3.13;0.57;;;12.90;92.50;;;;;;4803372;29;20058;-82
2021/10/13 09:42:22;;;;;;;10.25;1.10;;;12.90;92.00;;;;;;4807892;29;20047;-82
2021/10/13 09:44:59;;;;;;;5.07;0.85;;;12.90;92.20;;;;;;4802556;29;20049;-84
2021/10/13 09:47:34;;;;;;;6.85;0.75;;;12.90;92.30;;;;;;4803609;29;20133;-85
2021/10/13 09:50:15;;;;;;;5.40;0.70;;;13.00;92.30;;;;;;4805542;29;20047;-86
2021/10/13 10:02:01;;;;;;;6.82;1.00;;;13.10;92.00;;;;;;4806129;29;20061;-82
2021/10/13 10:04:37;;;;;;;3.88;0.82;;;13.10;92.30;;;;;;4802894;29;20050;-82
2021/10/13 10:07:58;;;;;;;;;;;;;;;;;;;;;
2021/10/13 10:18:42;;;;;;;8.63;0.93;;;13.30;91.50;;;;;;4812948;29;20043;-83
2021/10/13 10:29:38;;;;;;;3.90;0.52;;;13.60;91.50;;;;;;4715418;30;20144;-82
2021/10/13 10:36:16;;;;;;;;;;;13.60;92.00;;;;;;4716362;30;20097;-81
2021/10/13 10:39:14;;;;;;;3.67;0.82;;;13.60;91.90;;;;;;4722763;30;19927;-82
2021/10/13 10:42:20;;;;;;;6.72;0.60;;;13.60;92.30;;;;;;4729508;30;20067;-82
2021/10/13 10:44:48;;;;;;;2.58;0.40;;;13.60;91.80;;;;;;4684238;30;20425;-80
2021/10/13 10:47:16;;;;;;;3.67;0.60;;;13.50;92.10;;;;;;4729128;30;20059;-78
2021/10/13 10:49:52;;;;;;;3.65;0.50;;;13.50;92.40;;;;;;4761790;29;20134;-79
2021/10/13 10:52:25;;;;;;;3.35;0.45;;;13.40;92.80;;;;;;4796880;29;20062;-80
2021/10/13 10:55:01;;;;;;;4.97;0.67;;;13.40;93.10;;;;;;4808231;29;20522;-80
2021/10/13 10:57:35;;;;;;;2.72;0.60;;;13.30;93.00;;;;;;4807813;29;20050;-80
2021/10/13 11:00:21;;;;;;;3.40;0.60;;;13.30;93.20;;;;;;4809451;29;20474;-80
2021/10/13 11:02:51;;;;;;;4.63;0.68;;;13.20;93.00;;;;;;4788452;29;20119;-80
2021/10/13 11:05:21;;;;;;;2.05;0.60;;;13.20;93.40;;;;;;4793806;29;20129;-80
2021/10/13 11:07:51;;;;;;;2.63;0.55;;;13.30;93.60;;;;;;4791274;29;20054;-79
2021/10/13 11:10:16;;;;;;;2.65;0.40;;;13.30;93.60;;;;;;4807218;29;20142;-80
2021/10/13 11:12:47;;;;;;;2.58;0.57;;;13.30;93.70;;;;;;4806578;29;20137;-80
2021/10/13 11:15:14;;;;;;;4.80;0.60;;;13.40;94.10;;;;;;4789833;29;20074;-80
2021/10/13 11:17:39;;;;;;;2.67;0.60;;;13.30;93.70;;;;;;4802955;29;20488;-80
2021/10/13 11:20:07;;;;;;;3.50;0.50;;;13.40;93.70;;;;;;4808280;29;20049;-80
2021/10/13 11:22:33;;;;;;;2.47;0.70;;;13.40;93.60;;;;;;4824313;29;20099;-80
2021/10/13 11:24:59;;;;;;;1.83;0.40;;;13.40;93.70;;;;;;4804749;29;20069;-80
2021/10/13 11:27:25;;;;;;;2.08;0.35;;;13.40;93.70;;;;;;4789760;29;20047;-80
2021/10/13 11:29:51;;;;;;;3.03;0.50;;;13.40;93.70;;;;;;4789992;29;20051;-80
2021/10/13 11:32:17;;;;;;;3.30;0.60;;;13.40;93.70;;;;;;4790039;29;20050;-80
2021/10/13 11:35:03;;;;;;;5.80;0.40;;;13.50;93.90;;;;;;4789563;29;20476;-82
2021/10/13 11:37:30;;;;;;;7.95;1.20;;;13.50;93.60;;;;;;4789313;29;20062;-83
2021/10/13 11:39:55;;;;;;;9.48;0.63;;;13.50;93.60;;;;;;4789395;29;20051;-83
2021/10/13 11:42:25;;;;;;;6.82;0.93;;;13.50;93.60;;;;;;4790056;29;20467;-84
2021/10/13 11:44:52;;;;;;;4.65;0.60;;;13.50;93.70;;;;;;4822577;29;20058;-84
2021/10/13 11:47:31;;;;;;;5.28;0.52;;;13.50;93.60;;;;;;4802356;29;20042;-84
2021/10/13 11:50:09;;;;;;;3.92;0.55;;;13.60;93.60;;;;;;4807578;29;20046;-84
2021/10/13 11:52:36;;;;;;;3.20;0.70;;;13.60;93.70;;;;;;4823159;29;20062;-84
2021/10/13 11:55:08;;;;;;;3.45;0.50;;;13.60;93.70;;;;;;4808005;29;20154;-84
2021/10/13 11:57:36;;;;;;;4.90;0.70;;;13.70;93.70;;;;;;4807534;29;20145;-84
2021/10/13 12:00:14;;;;;;;18.40;1.90;;;13.70;93.70;;;;;;4821911;29;20412;-85
2021/10/13 12:02:40;;;;;;;12.85;1.35;;;13.80;93.30;;;;;;4807476;29;20066;-84
2021/10/13 12:05:08;;;;;;;5.35;0.80;;;13.80;92.90;;;;;;4807600;29;20113;-85
2021/10/13 12:07:42;;;;;;;6.28;0.82;;;13.80;92.90;;;;;;4808009;29;20089;-84
2021/10/13 12:10:08;;;;;;;6.75;1.10;;;13.90;92.60;;;;;;4807497;29;20054;-85
2021/10/13 12:12:34;;;;;;;6.18;0.88;;;13.90;92.40;;;;;;4807590;29;20055;-85
2021/10/13 12:15:00;;;;;;;5.97;0.82;;;13.90;92.20;;;;;;4807320;29;20074;-84
2021/10/13 12:17:31;;;;;;;5.22;1.05;;;13.90;91.90;;;;;;4807991;29;20038;-85
2021/10/13 12:19:59;;;;;;;4.95;0.90;;;14.00;91.70;;;;;;4806114;29;20077;-84
2021/10/13 12:22:26;;;;;;;3.47;0.70;;;14.00;91.90;;;;;;4807794;29;20065;-84
2021/10/13 12:24:52;;;;;;;6.03;0.60;;;14.00;91.90;;;;;;4807150;29;20050;-85
2021/10/13 12:27:29;;;;;;;6.80;0.95;;;14.10;92.10;;;;;;4806863;29;20077;-85
2021/10/13 12:29:56;;;;;;;6.80;0.93;;;14.10;91.90;;;;;;4800811;29;20046;-85
2021/10/13 12:32:23;;;;;;;8.80;1.00;;;14.20;91.80;;;;;;4790311;29;20073;-85
2021/10/13 12:34:50;;;;;;;12.38;1.50;;;14.10;91.80;;;;;;4804269;29;20495;-85
2021/10/13 12:37:16;;;;;;;6.57;1.08;;;14.20;92.00;;;;;;4805253;29;20050;-86
2021/10/13 12:39:41;;;;;;;6.32;1.00;;;14.20;91.60;;;;;;4803370;29;20052;-85
2021/10/13 12:42:12;;;;;;;4.20;0.98;;;14.20;91.60;;;;;;4790936;29;20082;-85
2021/10/13 12:44:39;;;;;;;5.38;1.20;;;14.20;91.30;;;;;;4790814;29;20050;-85
2021/10/13 12:47:10;;;;;;;6.22;0.90;;;14.20;91.20;;;;;;4790141;29;20050;-86
2021/10/13 12:49:45;;;;;;;4.78;0.90;;;14.20;91.00;;;;;;4790468;29;20055;-86
2021/10/13 12:52:20;;;;;;;6.72;1.05;;;14.30;91.30;;;;;;4790712;29;20046;-85
2021/10/13 12:54:48;;;;;;;6.95;0.95;;;14.30;91.20;;;;;;4793211;29;20078;-85
2021/10/13 12:57:18;;;;;;;7.28;1.20;;;14.20;90.80;;;;;;4801812;29;20524;-86
2021/10/13 12:59:45;;;;;;;6.78;1.08;;;14.20;90.70;;;;;;4789954;29;20063;-86
2021/10/13 13:02:11;;;;;;;10.45;1.55;;;14.20;90.60;;;;;;4934710;24;20014;-86
2021/10/13 13:04:39;;;;;;;6.13;1.00;;;14.20;90.50;;;;;;4805326;29;20072;-86
2021/10/13 13:07:07;;;;;;;9.05;1.65;;;14.20;90.80;;;;;;4790152;29;20043;-86
2021/10/13 13:09:33;;;;;;;7.13;1.15;;;14.20;90.60;;;;;;4791878;29;20115;-86
2021/10/13 13:11:59;;;;;;;8.07;1.38;;;14.20;90.50;;;;;;4792420;29;20058;-85
2021/10/13 13:14:24;;;;;;;10.65;1.52;;;14.20;90.90;;;;;;4792685;29;20054;-86
2021/10/13 13:16:51;;;;;;;8.20;1.45;;;14.20;90.90;;;;;;4791411;29;20074;-84
2021/10/13 13:19:17;;;;;;;6.47;1.55;;;14.20;90.30;;;;;;4792619;29;20203;-84
2021/10/13 13:21:46;;;;;;;6.20;1.10;;;14.20;90.50;;;;;;4792224;29;20070;-86
2021/10/13 13:24:12;;;;;;;6.85;1.10;;;14.20;90.90;;;;;;4791455;29;20446;-84
2021/10/13 13:26:38;;;;;;;7.72;1.42;;;14.20;91.40;;;;;;4792195;29;20046;-86
2021/10/13 13:29:04;;;;;;;5.07;1.10;;;14.30;90.80;;;;;;4792526;29;20103;-86
2021/10/13 13:31:30;;;;;;;6.50;1.20;;;14.20;90.80;;;;;;4791629;29;20188;-86